createdAt,value
2022-09-03T00:00:12.054Z,14.80
2022-09-03T00:02:50.771Z,14.70
2022-09-03T00:05:43.920Z,14.70
2022-09-03T00:08:14.972Z,14.60
2022-09-03T00:11:14.694Z,14.60
2022-09-03T00:14:22.921Z,14.70
2022-09-03T00:16:57.590Z,14.60
2022-09-03T00:19:31.575Z,14.50
2022-09-03T00:22:11.304Z,14.50
2022-09-03T00:24:42.093Z,14.50
2022-09-03T00:27:18.737Z,14.50
2022-09-03T00:29:52.336Z,14.40
2022-09-03T00:32:26.714Z,14.40
2022-09-03T00:35:00.224Z,14.50
2022-09-03T00:37:28.776Z,14.50
2022-09-03T00:40:02.930Z,14.60
2022-09-03T00:42:56.649Z,14.50
2022-09-03T00:45:26.778Z,14.60
2022-09-03T00:48:12.184Z,14.60
2022-09-03T00:51:00.809Z,14.60
2022-09-03T00:53:35.015Z,14.60
2022-09-03T00:56:17.318Z,14.60
2022-09-03T00:58:55.604Z,14.80
2022-09-03T01:01:41.016Z,14.70
2022-09-03T01:04:21.769Z,14.70
2022-09-03T01:07:28.469Z,14.70
2022-09-03T01:10:04.447Z,14.60
2022-09-03T01:13:05.777Z,14.50
2022-09-03T01:15:52.286Z,14.40
2022-09-03T01:18:48.686Z,14.50
2022-09-03T01:21:39.251Z,14.40
2022-09-03T01:24:31.687Z,14.30
2022-09-03T01:27:30.453Z,14.30
2022-09-03T01:30:18.305Z,14.20
2022-09-03T01:33:18.186Z,14.20
2022-09-03T01:36:00.251Z,14.10
2022-09-03T01:38:46.396Z,14.10
2022-09-03T01:41:57.117Z,14.10
2022-09-03T01:44:39.355Z,14.10
2022-09-03T01:47:27.983Z,14.10
2022-09-03T01:50:15.684Z,14.10
2022-09-03T01:52:54.915Z,14.10
2022-09-03T01:55:33.826Z,14.10
2022-09-03T01:58:21.520Z,14.00
2022-09-03T02:00:59.326Z,14.00
2022-09-03T02:03:36.023Z,14.10
2022-09-03T02:06:10.315Z,14.00
2022-09-03T02:08:38.167Z,13.90
2022-09-03T02:11:08.752Z,13.90
2022-09-03T02:13:40.471Z,14.00
2022-09-03T02:16:14.049Z,13.90
2022-09-03T02:18:51.698Z,13.80
2022-09-03T02:21:22.198Z,14.00
2022-09-03T02:23:49.783Z,13.90
2022-09-03T02:26:23.113Z,13.90
2022-09-03T02:28:51.989Z,13.90
2022-09-03T02:31:22.133Z,13.90
2022-09-03T02:33:52.022Z,13.90
2022-09-03T02:36:27.492Z,14.00
2022-09-03T02:38:55.462Z,13.90
2022-09-03T02:41:24.099Z,14.00
2022-09-03T02:43:57.883Z,14.10
2022-09-03T02:46:33.367Z,14.10
2022-09-03T02:49:00.778Z,14.10
2022-09-03T02:51:33.085Z,14.10
2022-09-03T02:54:00.454Z,14.10
2022-09-03T02:56:27.961Z,14.20
2022-09-03T02:58:56.173Z,14.30
2022-09-03T03:01:24.353Z,14.30
2022-09-03T03:03:52.086Z,14.30
2022-09-03T03:06:20.893Z,14.20
2022-09-03T03:08:49.884Z,14.10
2022-09-03T03:11:19.340Z,14.10
2022-09-03T03:13:49.885Z,14.10
2022-09-03T03:16:17.647Z,14.00
2022-09-03T03:18:48.476Z,13.90
2022-09-03T03:21:17.981Z,13.90
2022-09-03T03:23:45.878Z,13.90
2022-09-03T03:26:18.593Z,13.80
2022-09-03T03:28:48.937Z,13.90
2022-09-03T03:31:19.937Z,13.90
2022-09-03T03:33:57.806Z,13.90
2022-09-03T03:36:28.395Z,13.80
2022-09-03T03:38:58.136Z,13.80
2022-09-03T03:41:33.708Z,13.70
2022-09-03T03:44:03.887Z,13.70
2022-09-03T03:46:34.356Z,13.80
2022-09-03T03:49:03.863Z,13.70
2022-09-03T03:51:31.185Z,13.90
2022-09-03T03:54:03.128Z,13.90
2022-09-03T03:56:33.006Z,13.90
2022-09-03T03:59:00.702Z,13.80
2022-09-03T04:01:29.006Z,13.70
2022-09-03T04:03:58.400Z,13.60
2022-09-03T04:06:26.019Z,13.50
2022-09-03T04:08:53.438Z,13.60
2022-09-03T04:11:23.463Z,13.50
2022-09-03T04:13:51.974Z,13.50
2022-09-03T04:16:21.789Z,13.40
2022-09-03T04:18:49.833Z,13.30
2022-09-03T04:21:23.174Z,13.30
2022-09-03T04:23:52.233Z,13.30
2022-09-03T04:26:22.959Z,13.20
2022-09-03T04:28:50.620Z,13.10
2022-09-03T04:31:20.496Z,13.10
2022-09-03T04:33:48.183Z,13.20
2022-09-03T04:36:18.132Z,13.20
2022-09-03T04:38:47.467Z,13.20
2022-09-03T04:41:18.810Z,13.20
2022-09-03T04:43:48.292Z,13.10
2022-09-03T04:46:20.910Z,13.10
2022-09-03T04:48:53.153Z,13.10
2022-09-03T04:51:24.318Z,13.00
2022-09-03T04:54:00.434Z,13.00
2022-09-03T04:56:30.824Z,13.10
2022-09-03T04:59:03.863Z,13.00
2022-09-03T05:01:33.894Z,13.10
2022-09-03T05:04:02.174Z,13.20
2022-09-03T05:06:31.467Z,13.10
2022-09-03T05:09:01.494Z,13.10
2022-09-03T05:11:29.687Z,13.20
2022-09-03T05:13:59.125Z,13.30
2022-09-03T05:16:28.892Z,13.30
2022-09-03T05:18:59.681Z,13.40
2022-09-03T05:21:28.528Z,13.40
2022-09-03T05:23:56.850Z,13.40
2022-09-03T05:26:26.754Z,13.50
2022-09-03T05:29:01.549Z,13.60
2022-09-03T05:31:31.533Z,13.70
2022-09-03T05:34:01.323Z,13.70
2022-09-03T05:36:31.457Z,13.80
2022-09-03T05:38:59.690Z,13.90
2022-09-03T05:41:28.518Z,14.00
2022-09-03T05:43:58.685Z,14.10
2022-09-03T05:46:34.365Z,14.20
2022-09-03T05:49:04.157Z,14.30
2022-09-03T05:51:33.211Z,14.50
2022-09-03T05:54:01.005Z,14.60
2022-09-03T05:56:30.430Z,14.70
2022-09-03T05:59:01.082Z,14.80
2022-09-03T06:01:31.216Z,15.00
2022-09-03T06:04:02.910Z,15.20
2022-09-03T06:06:32.907Z,15.50
2022-09-03T06:09:13.303Z,15.80
2022-09-03T06:11:42.791Z,15.90
2022-09-03T06:14:14.285Z,16.00
2022-09-03T06:16:43.947Z,16.20
2022-09-03T06:19:13.117Z,16.30
2022-09-03T06:21:43.169Z,16.40
2022-09-03T06:24:27.866Z,16.50
2022-09-03T06:26:59.286Z,16.60
2022-09-03T06:29:26.932Z,16.70
2022-09-03T06:31:56.886Z,16.80
2022-09-03T06:34:27.163Z,16.90
2022-09-03T06:36:54.859Z,17.00
2022-09-03T06:39:22.692Z,17.50
2022-09-03T06:41:51.813Z,17.80
2022-09-03T06:44:25.960Z,17.90
2022-09-03T06:46:53.487Z,18.10
2022-09-03T06:49:21.723Z,18.60
2022-09-03T06:51:49.115Z,18.80
2022-09-03T06:54:16.536Z,19.20
2022-09-03T06:56:43.850Z,20.20
2022-09-03T06:59:13.721Z,21.70
2022-09-03T07:01:43.975Z,21.20
2022-09-03T07:04:14.635Z,20.90
2022-09-03T07:06:43.226Z,20.40
2022-09-03T07:09:12.347Z,20.10
2022-09-03T07:11:46.976Z,19.90
2022-09-03T07:14:16.906Z,19.70
2022-09-03T07:16:44.268Z,19.80
2022-09-03T07:19:13.398Z,19.70
2022-09-03T07:21:44.057Z,19.70
2022-09-03T07:24:15.636Z,19.70
2022-09-03T07:26:49.443Z,19.90
2022-09-03T07:29:20.343Z,20.40
2022-09-03T07:31:51.759Z,20.80
2022-09-03T07:34:20.378Z,20.50
2022-09-03T07:36:51.265Z,20.60
2022-09-03T07:39:19.902Z,21.60
2022-09-03T07:41:47.918Z,24.40
2022-09-03T07:44:19.549Z,26.70
2022-09-03T07:46:50.856Z,27.40
2022-09-03T07:49:20.242Z,27.70
2022-09-03T07:51:50.597Z,28.40
2022-09-03T07:54:18.083Z,29.00
2022-09-03T07:56:45.395Z,27.80
2022-09-03T07:59:12.834Z,28.60
2022-09-03T08:01:41.456Z,29.80
2022-09-03T08:04:10.845Z,31.00
2022-09-03T08:06:39.591Z,32.80
2022-09-03T08:09:09.835Z,32.50
2022-09-03T08:11:40.427Z,30.60
2022-09-03T08:14:10.195Z,29.80
2022-09-03T08:16:39.878Z,30.80
2022-09-03T08:19:07.588Z,30.60
2022-09-03T08:21:35.229Z,30.00
2022-09-03T08:24:02.972Z,28.00
2022-09-03T08:26:32.560Z,27.50
2022-09-03T08:29:00.473Z,28.90
2022-09-03T08:31:29.276Z,30.80
2022-09-03T08:33:58.918Z,31.70
2022-09-03T08:36:30.013Z,32.30
2022-09-03T08:39:08.011Z,32.80
2022-09-03T08:41:53.607Z,32.90
2022-09-03T08:44:51.837Z,33.60
2022-09-03T08:47:21.942Z,34.40
2022-09-03T08:49:58.499Z,34.50
2022-09-03T08:52:33.307Z,34.70
2022-09-03T08:55:27.345Z,34.80
2022-09-03T08:58:14.216Z,34.10
2022-09-03T09:00:48.343Z,32.60
2022-09-03T09:03:37.894Z,33.60
2022-09-03T09:06:07.142Z,34.40
2022-09-03T09:08:59.098Z,35.10
2022-09-03T09:11:58.328Z,35.70
2022-09-03T09:14:48.658Z,35.90
2022-09-03T09:17:32.610Z,35.50
2022-09-03T09:20:09.759Z,34.50
2022-09-03T09:22:47.165Z,34.00
2022-09-03T09:25:24.410Z,36.10
2022-09-03T09:28:11.998Z,36.20
2022-09-03T09:30:40.041Z,35.60
2022-09-03T09:33:07.487Z,35.40
2022-09-03T09:35:35.143Z,35.10
2022-09-03T09:38:02.527Z,34.40
2022-09-03T09:40:33.175Z,34.50
2022-09-03T09:43:10.876Z,35.50
2022-09-03T09:45:40.797Z,35.80
2022-09-03T09:48:31.808Z,36.60
2022-09-03T09:51:08.945Z,36.60
2022-09-03T09:53:36.915Z,36.90
2022-09-03T09:56:04.302Z,36.80
2022-09-03T09:58:34.030Z,36.60
2022-09-03T10:01:25.830Z,36.50
2022-09-03T10:03:56.296Z,35.70
2022-09-03T10:06:48.178Z,37.00
2022-09-03T10:09:20.874Z,37.90
2022-09-03T10:11:57.144Z,36.00
2022-09-03T10:14:33.215Z,36.10
2022-09-03T10:17:19.752Z,36.80
2022-09-03T10:20:33.790Z,37.30
2022-09-03T10:23:03.461Z,37.10
2022-09-03T10:25:42.834Z,35.90
2022-09-03T10:28:12.424Z,35.80
2022-09-03T10:31:13.647Z,35.70
2022-09-03T10:33:55.438Z,35.40
2022-09-03T10:36:30.720Z,36.50
2022-09-03T10:39:26.147Z,37.00
2022-09-03T10:42:24.839Z,36.30
2022-09-03T10:45:08.033Z,33.50
2022-09-03T10:47:42.324Z,30.20
2022-09-03T10:50:16.263Z,28.40
2022-09-03T10:53:05.959Z,27.80
2022-09-03T10:55:39.590Z,27.30
2022-09-03T10:58:11.578Z,27.30
2022-09-03T11:00:47.298Z,27.10
2022-09-03T11:03:39.026Z,26.90
2022-09-03T11:06:28.044Z,26.80
2022-09-03T11:09:06.772Z,26.70
2022-09-03T11:11:42.305Z,26.30
2022-09-03T11:14:11.657Z,26.40
2022-09-03T11:16:52.645Z,26.60
2022-09-03T11:19:31.470Z,26.50
2022-09-03T11:21:59.064Z,26.60
2022-09-03T11:24:28.512Z,26.60
2022-09-03T11:27:41.037Z,26.40
2022-09-03T11:30:36.507Z,26.40
2022-09-03T11:33:11.599Z,26.10
2022-09-03T11:35:42.442Z,26.20
2022-09-03T11:38:16.594Z,26.20
2022-09-03T11:40:59.041Z,26.20
2022-09-03T11:43:35.857Z,26.20
2022-09-03T11:46:14.388Z,26.00
2022-09-03T11:48:44.638Z,25.80
2022-09-03T11:51:35.783Z,26.20
2022-09-03T11:54:13.426Z,26.10
2022-09-03T11:56:42.479Z,26.00
2022-09-03T11:59:15.850Z,25.90
2022-09-03T12:01:52.393Z,25.60
2022-09-03T12:04:45.836Z,25.70
2022-09-03T12:07:31.714Z,25.50
2022-09-03T12:10:08.850Z,25.50
2022-09-03T12:13:03.518Z,25.80
2022-09-03T12:16:03.645Z,25.90
2022-09-03T12:18:33.656Z,26.20
2022-09-03T12:21:04.066Z,26.20
2022-09-03T12:23:33.547Z,26.00
2022-09-03T12:26:09.562Z,26.10
2022-09-03T12:28:45.735Z,25.90
2022-09-03T12:31:24.653Z,25.70
2022-09-03T12:34:00.865Z,25.80
2022-09-03T12:36:43.016Z,25.90
2022-09-03T12:39:15.576Z,25.90
2022-09-03T12:42:04.034Z,26.00
2022-09-03T12:44:37.377Z,26.10
2022-09-03T12:47:38.826Z,26.10
2022-09-03T12:50:14.728Z,25.90
2022-09-03T12:52:55.240Z,25.80
2022-09-03T12:55:40.380Z,25.70
2022-09-03T12:58:13.949Z,25.80
2022-09-03T13:00:47.900Z,25.80
2022-09-03T13:03:21.076Z,25.80
2022-09-03T13:05:53.830Z,25.80
2022-09-03T13:08:27.499Z,25.90
2022-09-03T13:10:58.274Z,25.80
2022-09-03T13:13:40.709Z,25.90
2022-09-03T13:16:35.082Z,26.00
2022-09-03T13:19:21.814Z,26.10
2022-09-03T13:22:26.839Z,26.00
2022-09-03T13:25:27.791Z,25.90
2022-09-03T13:28:21.263Z,25.90
2022-09-03T13:30:55.403Z,25.70
2022-09-03T13:33:32.972Z,25.70
2022-09-03T13:36:31.653Z,25.60
2022-09-03T13:39:06.498Z,25.70
2022-09-03T13:41:46.520Z,25.90
2022-09-03T13:44:13.898Z,25.80
2022-09-03T13:46:51.794Z,25.80
2022-09-03T13:49:52.914Z,25.70
2022-09-03T13:52:45.117Z,25.70
2022-09-03T13:55:17.171Z,25.70
2022-09-03T13:58:01.050Z,25.70
2022-09-03T14:00:35.256Z,25.80
2022-09-03T14:03:31.063Z,25.60
2022-09-03T14:06:11.634Z,25.70
2022-09-03T14:09:26.692Z,25.70
2022-09-03T14:12:04.189Z,25.80
2022-09-03T14:14:37.920Z,25.60
2022-09-03T14:17:33.213Z,25.70
2022-09-03T14:20:18.782Z,25.70
2022-09-03T14:23:00.040Z,25.60
2022-09-03T14:25:27.871Z,25.60
2022-09-03T14:28:12.804Z,25.50
2022-09-03T14:31:08.987Z,25.60
2022-09-03T14:34:05.209Z,25.70
2022-09-03T14:37:10.793Z,25.70
2022-09-03T14:39:49.892Z,25.70
2022-09-03T14:42:42.918Z,25.70
2022-09-03T14:45:24.126Z,25.70
2022-09-03T14:48:17.538Z,25.70
2022-09-03T14:51:09.723Z,25.80
2022-09-03T14:54:09.318Z,25.70
2022-09-03T14:56:54.658Z,25.80
2022-09-03T14:59:55.671Z,25.90
2022-09-03T15:02:35.137Z,25.90
2022-09-03T15:05:40.502Z,25.90
2022-09-03T15:08:39.731Z,25.80
2022-09-03T15:11:20.040Z,25.70
2022-09-03T15:14:19.635Z,25.80
2022-09-03T15:17:05.203Z,25.80
2022-09-03T15:19:58.346Z,25.70
2022-09-03T15:22:47.974Z,25.70
2022-09-03T15:25:37.319Z,25.80
2022-09-03T15:28:19.722Z,25.90
2022-09-03T15:31:04.845Z,26.00
2022-09-03T15:33:44.985Z,26.10
2022-09-03T15:36:26.437Z,26.20
2022-09-03T15:39:01.836Z,26.20
2022-09-03T15:42:07.235Z,26.20
2022-09-03T15:44:49.946Z,26.20
2022-09-03T15:47:51.005Z,26.20
2022-09-03T15:50:28.514Z,26.10
2022-09-03T15:53:35.128Z,25.90
2022-09-03T15:56:23.741Z,25.90
2022-09-03T15:59:15.406Z,26.10
2022-09-03T16:02:03.721Z,26.20
2022-09-03T16:04:42.934Z,26.10
2022-09-03T16:07:24.063Z,26.10
2022-09-03T16:10:24.298Z,25.90
2022-09-03T16:13:14.815Z,25.90
2022-09-03T16:15:48.220Z,25.90
2022-09-03T16:18:37.233Z,25.70
2022-09-03T16:21:46.279Z,25.70
2022-09-03T16:24:21.263Z,25.60
2022-09-03T16:27:11.702Z,25.50
2022-09-03T16:29:39.680Z,25.40
2022-09-03T16:32:23.047Z,25.40
2022-09-03T16:35:38.063Z,25.30
2022-09-03T16:38:20.710Z,25.20
2022-09-03T16:40:59.062Z,25.00
2022-09-03T16:43:42.016Z,25.00
2022-09-03T16:46:15.460Z,25.00
2022-09-03T16:49:11.762Z,24.80
2022-09-03T16:51:54.390Z,24.70
2022-09-03T16:54:59.442Z,24.70
2022-09-03T16:58:08.136Z,24.60
2022-09-03T17:01:08.867Z,24.40
2022-09-03T17:03:48.235Z,24.30
2022-09-03T17:06:42.115Z,24.30
2022-09-03T17:09:42.331Z,24.30
2022-09-03T17:12:15.703Z,24.20
2022-09-03T17:14:49.553Z,24.20
2022-09-03T17:17:27.955Z,24.00
2022-09-03T17:20:19.068Z,23.90
2022-09-03T17:23:14.966Z,23.80
2022-09-03T17:25:59.884Z,23.70
2022-09-03T17:28:56.295Z,23.60
2022-09-03T17:31:50.933Z,23.50
2022-09-03T17:34:29.500Z,23.40
2022-09-03T17:37:07.011Z,23.30
2022-09-03T17:40:08.772Z,23.20
2022-09-03T17:43:04.537Z,23.10
2022-09-03T17:45:41.754Z,23.10
2022-09-03T17:48:37.369Z,23.10
2022-09-03T17:51:09.291Z,23.10
2022-09-03T17:53:57.339Z,22.90
2022-09-03T17:56:29.655Z,22.80
2022-09-03T17:59:32.015Z,22.60
2022-09-03T18:02:10.223Z,22.50
2022-09-03T18:04:51.443Z,22.40
2022-09-03T18:07:42.932Z,22.30
2022-09-03T18:10:13.426Z,22.10
2022-09-03T18:13:01.340Z,22.10
2022-09-03T18:15:39.365Z,22.20
2022-09-03T18:18:30.149Z,22.30
2022-09-03T18:21:25.552Z,22.30
2022-09-03T18:24:53.005Z,22.20
2022-09-03T18:27:41.839Z,22.10
2022-09-03T18:30:32.323Z,21.90
2022-09-03T18:33:18.063Z,21.80
2022-09-03T18:36:05.293Z,21.70
2022-09-03T18:38:58.194Z,21.50
2022-09-03T18:41:50.719Z,21.40
2022-09-03T18:44:48.673Z,21.30
2022-09-03T18:48:14.919Z,21.20
2022-09-03T18:51:05.105Z,21.00
2022-09-03T18:54:09.931Z,21.00
2022-09-03T18:57:09.891Z,20.80
2022-09-03T19:00:02.160Z,20.60
2022-09-03T19:03:15.658Z,20.60
2022-09-03T19:06:20.988Z,20.40
2022-09-03T19:09:12.420Z,20.30
2022-09-03T19:12:38.567Z,20.10
2022-09-03T19:15:33.109Z,20.00
2022-09-03T19:18:18.872Z,20.00
2022-09-03T19:21:21.601Z,20.00
2022-09-03T19:24:07.911Z,20.00
2022-09-03T19:27:18.087Z,20.10
2022-09-03T19:30:36.635Z,20.10
2022-09-03T19:33:32.523Z,20.00
2022-09-03T19:36:23.963Z,19.90
2022-09-03T19:39:46.518Z,19.80
2022-09-03T19:42:51.553Z,19.70
2022-09-03T19:46:03.718Z,19.70
2022-09-03T19:48:55.687Z,19.60
2022-09-03T19:51:50.758Z,19.50
2022-09-03T19:54:41.464Z,19.60
2022-09-03T19:57:30.454Z,19.50
2022-09-03T20:00:17.968Z,19.40
2022-09-03T20:03:17.578Z,19.30
2022-09-03T20:06:08.824Z,19.20
2022-09-03T20:08:57.311Z,19.10
2022-09-03T20:11:28.913Z,19.10
2022-09-03T20:14:14.489Z,19.10
2022-09-03T20:17:02.393Z,19.10
2022-09-03T20:20:03.305Z,19.10
2022-09-03T20:22:50.190Z,19.00
2022-09-03T20:25:44.945Z,18.90
2022-09-03T20:28:14.991Z,19.00
2022-09-03T20:31:03.736Z,18.90
2022-09-03T20:33:45.806Z,18.80
2022-09-03T20:36:42.240Z,18.70
2022-09-03T20:39:09.585Z,18.60
2022-09-03T20:42:04.993Z,18.60
2022-09-03T20:44:52.575Z,18.50
2022-09-03T20:47:39.637Z,18.40
2022-09-03T20:50:21.739Z,18.30
2022-09-03T20:53:11.184Z,18.20
2022-09-03T20:55:50.657Z,18.20
2022-09-03T20:58:20.305Z,18.10
2022-09-03T21:01:02.746Z,18.10
2022-09-03T21:03:50.065Z,18.10
2022-09-03T21:06:42.405Z,18.00
2022-09-03T21:09:21.395Z,18.00
2022-09-03T21:12:04.016Z,18.10
2022-09-03T21:14:53.528Z,18.10
2022-09-03T21:17:45.857Z,17.90
2022-09-03T21:20:47.782Z,18.00
2022-09-03T21:23:29.318Z,17.90
2022-09-03T21:26:05.762Z,17.80
2022-09-03T21:28:41.686Z,17.90
2022-09-03T21:31:31.903Z,17.80
2022-09-03T21:34:19.243Z,17.80
2022-09-03T21:36:48.985Z,17.70
2022-09-03T21:40:03.887Z,17.70
2022-09-03T21:42:42.166Z,17.60
2022-09-03T21:45:14.391Z,17.50
2022-09-03T21:47:48.099Z,17.40
2022-09-03T21:50:21.962Z,17.30
2022-09-03T21:53:02.086Z,17.40
2022-09-03T21:55:56.901Z,17.40
2022-09-03T21:58:44.643Z,17.50
2022-09-03T22:01:20.202Z,17.40
2022-09-03T22:03:47.596Z,17.30
2022-09-03T22:06:25.752Z,17.30
2022-09-03T22:09:07.929Z,17.30
2022-09-03T22:11:57.130Z,17.30
2022-09-03T22:14:28.047Z,17.20
2022-09-03T22:17:16.751Z,17.20
2022-09-03T22:19:45.935Z,17.10
2022-09-03T22:22:29.089Z,17.10
2022-09-03T22:25:09.155Z,17.10
2022-09-03T22:28:03.271Z,17.10
2022-09-03T22:30:41.120Z,16.90
2022-09-03T22:33:46.979Z,16.90
2022-09-03T22:36:28.419Z,16.90
2022-09-03T22:39:01.142Z,16.80
2022-09-03T22:41:47.022Z,16.80
2022-09-03T22:44:43.824Z,16.80
2022-09-03T22:47:29.045Z,16.80
2022-09-03T22:50:13.020Z,16.70
2022-09-03T22:53:02.751Z,16.70
2022-09-03T22:55:30.390Z,16.60
2022-09-03T22:58:00.622Z,16.60
2022-09-03T23:00:29.738Z,16.60
2022-09-03T23:03:07.097Z,16.50
2022-09-03T23:05:37.414Z,16.50
2022-09-03T23:08:33.489Z,16.40
2022-09-03T23:11:06.192Z,16.30
2022-09-03T23:13:36.351Z,16.30
2022-09-03T23:16:38.803Z,16.30
2022-09-03T23:19:43.738Z,16.30
2022-09-03T23:22:20.729Z,16.20
2022-09-03T23:24:57.196Z,16.20
2022-09-03T23:27:31.470Z,16.20
2022-09-03T23:30:01.677Z,16.10
2022-09-03T23:32:33.274Z,16.30
2022-09-03T23:35:06.827Z,16.30
2022-09-03T23:37:57.339Z,16.20
2022-09-03T23:40:48.499Z,16.20
2022-09-03T23:43:55.187Z,16.20
2022-09-03T23:46:27.962Z,16.20
2022-09-03T23:48:55.302Z,16.10
2022-09-03T23:51:51.664Z,16.00
2022-09-03T23:54:37.085Z,15.90
2022-09-03T23:57:21.022Z,15.90
